createdAt,value
2022-10-14T12:28:09.115Z,36.96
2022-10-14T12:30:38.088Z,37.67
2022-10-14T12:33:07.340Z,38.29
2022-10-14T12:35:49.187Z,38.67
2022-10-14T12:38:19.706Z,39.37
2022-10-14T12:40:49.482Z,40.33
2022-10-14T12:43:25.493Z,40.71
2022-10-14T12:46:20.730Z,42.21
2022-10-14T12:48:51.535Z,42.51
2022-10-14T12:51:21.380Z,42.36
2022-10-14T12:54:05.040Z,43.91
2022-10-14T12:56:34.920Z,43.92
2022-10-14T12:59:06.323Z,44.10
2022-10-14T13:01:38.946Z,43.82
2022-10-14T13:04:10.146Z,43.92
2022-10-14T13:06:40.161Z,43.77
2022-10-14T13:09:31.741Z,44.33
2022-10-14T13:12:13.244Z,44.87
2022-10-14T13:14:56.082Z,43.99
2022-10-14T13:17:33.091Z,44.16
2022-10-14T13:20:01.166Z,44.05
2022-10-14T13:22:39.419Z,44.27
2022-10-14T13:25:13.513Z,45.08
2022-10-14T13:27:50.825Z,44.71
2022-10-14T13:30:21.315Z,44.75
2022-10-14T13:32:53.738Z,44.58
2022-10-14T13:35:25.690Z,45.48
2022-10-14T13:37:59.526Z,45.53
2022-10-14T13:40:30.239Z,45.28
2022-10-14T13:42:59.616Z,45.37
2022-10-14T13:45:32.353Z,45.54
2022-10-14T13:48:01.845Z,45.57
2022-10-14T13:50:33.974Z,45.48
2022-10-14T13:53:04.660Z,45.72
2022-10-14T13:55:32.787Z,45.68
2022-10-14T13:58:12.436Z,46.76
2022-10-14T14:00:43.961Z,46.60
2022-10-14T14:03:17.379Z,46.56
2022-10-14T14:05:45.582Z,47.35
2022-10-14T14:11:22.042Z,47.42
2022-10-14T14:13:59.896Z,47.27
2022-10-14T14:16:31.327Z,47.29
2022-10-14T14:19:08.263Z,47.32
2022-10-14T14:21:37.351Z,47.56
2022-10-14T14:24:11.979Z,47.42
2022-10-14T14:26:40.655Z,47.58
2022-10-14T14:29:16.078Z,47.28
2022-10-14T14:32:05.675Z,47.71
2022-10-14T14:34:36.060Z,47.89
2022-10-14T14:37:25.114Z,47.67
2022-10-14T14:39:58.358Z,47.89
2022-10-14T14:42:27.765Z,47.94
2022-10-14T14:44:56.873Z,48.54
2022-10-14T14:47:26.690Z,48.55
2022-10-14T14:50:06.378Z,48.88
2022-10-14T14:52:45.193Z,48.38
2022-10-14T14:55:46.634Z,48.34
2022-10-14T14:58:25.807Z,48.15
2022-10-14T15:00:55.150Z,48.60
2022-10-14T15:03:24.350Z,48.43
2022-10-14T15:05:56.627Z,48.17
2022-10-14T15:08:27.569Z,47.99
2022-10-14T15:10:58.021Z,48.25
2022-10-14T15:13:30.327Z,48.56
2022-10-14T15:15:58.740Z,48.44
2022-10-14T15:18:28.157Z,48.68
2022-10-14T15:21:06.943Z,49.12
2022-10-14T15:23:39.178Z,49.22
2022-10-14T15:26:21.684Z,49.27
2022-10-14T15:29:03.916Z,49.26
2022-10-14T15:31:32.137Z,49.35
2022-10-14T15:34:00.193Z,49.92
2022-10-14T15:36:31.704Z,50.09
2022-10-14T15:39:01.580Z,50.21
2022-10-14T15:41:29.834Z,50.53
2022-10-14T15:43:57.885Z,50.66
2022-10-14T15:46:43.354Z,50.70
2022-10-14T15:49:15.383Z,50.77
2022-10-14T15:51:44.826Z,50.28
2022-10-14T15:54:15.390Z,50.72
2022-10-14T15:56:43.481Z,50.73
2022-10-14T15:59:11.614Z,51.11
2022-10-14T16:01:41.365Z,50.76
2022-10-14T16:04:15.587Z,50.37
2022-10-14T16:06:45.110Z,50.62
2022-10-14T16:09:13.253Z,50.47
2022-10-14T16:11:41.327Z,50.56
2022-10-14T16:14:10.716Z,50.25
2022-10-14T16:16:41.856Z,50.73
2022-10-14T16:19:09.922Z,50.61
2022-10-14T16:21:38.263Z,50.42
2022-10-14T16:24:08.646Z,50.47
2022-10-14T16:26:37.188Z,50.58
2022-10-14T16:29:05.228Z,51.01
2022-10-14T16:31:33.270Z,51.24
2022-10-14T16:34:01.984Z,51.36
2022-10-14T16:36:30.072Z,51.69
2022-10-14T16:39:01.829Z,51.19
2022-10-14T16:41:31.689Z,52.25
2022-10-14T16:43:59.814Z,51.71
2022-10-14T16:46:41.702Z,52.32
2022-10-14T16:49:09.844Z,52.69
2022-10-14T16:51:37.972Z,52.45
2022-10-14T16:54:06.160Z,51.92
2022-10-14T16:56:53.927Z,52.16
2022-10-14T16:59:22.537Z,52.39
2022-10-14T17:01:51.303Z,52.84
2022-10-14T17:04:22.378Z,53.07
2022-10-14T17:06:56.831Z,53.65
2022-10-14T17:12:03.284Z,53.43
2022-10-14T17:14:32.408Z,53.16
2022-10-14T17:17:00.499Z,53.34
2022-10-14T17:19:28.700Z,54.13
2022-10-14T17:21:56.790Z,53.56
2022-10-14T17:24:26.140Z,54.15
2022-10-14T17:26:54.182Z,54.20
2022-10-14T17:29:23.632Z,53.69
2022-10-14T17:31:52.699Z,53.89
2022-10-14T17:34:20.742Z,54.61
2022-10-14T17:36:49.270Z,54.59
2022-10-14T17:39:25.843Z,54.36
2022-10-14T17:41:57.566Z,54.60
2022-10-14T17:44:28.941Z,54.56
2022-10-14T17:46:57.163Z,54.19
2022-10-14T17:49:25.330Z,54.00
2022-10-14T17:51:53.447Z,54.35
2022-10-14T17:54:21.695Z,53.96
2022-10-14T17:56:49.771Z,53.74
2022-10-14T17:59:17.861Z,54.01
2022-10-14T18:02:04.006Z,53.59
2022-10-14T18:04:33.275Z,53.68
2022-10-14T18:07:01.397Z,53.75
2022-10-14T18:09:29.521Z,54.15
2022-10-14T18:12:13.444Z,53.16
2022-10-14T18:14:42.005Z,54.08
2022-10-14T18:17:12.544Z,53.74
2022-10-14T18:19:41.506Z,53.39
2022-10-14T18:22:11.312Z,53.06
2022-10-14T18:24:39.616Z,53.30
2022-10-14T18:27:07.851Z,52.76
2022-10-14T18:29:35.966Z,52.78
2022-10-14T18:32:04.289Z,52.88
2022-10-14T18:34:33.854Z,52.58
2022-10-14T18:37:01.959Z,53.03
2022-10-14T18:39:30.229Z,52.10
2022-10-14T18:41:58.328Z,52.09
2022-10-14T18:44:26.409Z,52.66
2022-10-14T18:46:54.496Z,52.78
2022-10-14T18:49:22.628Z,52.79
2022-10-14T18:51:53.623Z,51.99
2022-10-14T18:54:23.814Z,52.30
2022-10-14T18:56:51.949Z,52.30
2022-10-14T18:59:21.563Z,51.71
2022-10-14T19:01:53.363Z,51.96
2022-10-14T19:04:22.721Z,52.02
2022-10-14T19:06:52.228Z,52.23
2022-10-14T19:09:24.094Z,51.26
2022-10-14T19:11:52.650Z,51.63
2022-10-14T19:14:20.869Z,51.88
2022-10-14T19:16:49.853Z,52.17
2022-10-14T19:19:19.450Z,51.68
2022-10-14T19:21:49.406Z,51.42
2022-10-14T19:24:18.915Z,51.63
2022-10-14T19:26:48.170Z,51.50
2022-10-14T19:29:17.058Z,50.65
2022-10-14T19:31:45.128Z,51.74
2022-10-14T19:34:14.454Z,51.24
2022-10-14T19:36:42.915Z,51.45
2022-10-14T19:39:13.060Z,51.95
2022-10-14T19:41:45.195Z,51.74
2022-10-14T19:44:14.017Z,52.10
2022-10-14T19:46:42.386Z,53.02
2022-10-14T19:49:12.363Z,52.50
2022-10-14T19:51:40.942Z,52.56
2022-10-14T19:54:09.034Z,53.02
2022-10-14T19:56:37.044Z,53.18
2022-10-14T19:59:06.513Z,53.29
2022-10-14T20:01:34.656Z,53.49
2022-10-14T20:04:03.391Z,53.96
2022-10-14T20:06:33.370Z,54.63
2022-10-14T20:09:01.599Z,53.96
2022-10-14T20:11:29.763Z,54.61
2022-10-14T20:13:57.800Z,55.39
2022-10-14T20:16:27.601Z,55.34
2022-10-14T20:18:55.780Z,55.38
2022-10-14T20:21:23.884Z,54.93
2022-10-14T20:23:51.937Z,55.31
2022-10-14T20:26:21.146Z,54.99
2022-10-14T20:28:50.091Z,54.97
2022-10-14T20:31:19.348Z,55.03
2022-10-14T20:33:48.764Z,55.67
2022-10-14T20:36:17.610Z,55.48
2022-10-14T20:38:45.857Z,55.56
2022-10-14T20:41:15.383Z,55.88
2022-10-14T20:43:43.909Z,55.33
2022-10-14T20:46:12.265Z,55.63
2022-10-14T20:48:40.467Z,55.08
2022-10-14T20:51:11.549Z,55.69
2022-10-14T20:56:13.382Z,55.53
2022-10-14T20:58:41.456Z,55.91
2022-10-14T21:01:10.437Z,56.08
2022-10-14T21:03:38.613Z,56.59
2022-10-14T21:06:08.333Z,55.93
2022-10-14T21:08:38.013Z,56.89
2022-10-14T21:11:10.521Z,55.92
2022-10-14T21:13:42.191Z,56.00
2022-10-14T21:16:21.443Z,56.56
2022-10-14T21:18:53.698Z,56.40
2022-10-14T21:21:26.473Z,56.65
2022-10-14T21:23:56.091Z,56.81
2022-10-14T21:26:25.401Z,57.28
2022-10-14T21:28:53.586Z,57.47
2022-10-14T21:31:21.802Z,57.04
2022-10-14T21:33:54.895Z,57.15
2022-10-14T21:36:22.905Z,57.05
2022-10-14T21:38:51.197Z,57.33
2022-10-14T21:41:20.743Z,57.56
2022-10-14T21:43:48.811Z,58.05
2022-10-14T21:46:17.888Z,57.17
2022-10-14T21:48:46.286Z,57.83
2022-10-14T21:51:16.104Z,57.94
2022-10-14T21:53:44.966Z,57.30
2022-10-14T21:56:13.940Z,57.77
2022-10-14T21:58:43.535Z,57.41
2022-10-14T22:01:12.120Z,57.77
2022-10-14T22:03:40.560Z,57.39
2022-10-14T22:06:10.462Z,57.56
2022-10-14T22:08:40.954Z,57.76
2022-10-14T22:11:09.480Z,57.87
2022-10-14T22:13:37.504Z,57.68
2022-10-14T22:16:07.084Z,58.31
2022-10-14T22:18:35.121Z,57.96
2022-10-14T22:21:08.538Z,57.35
2022-10-14T22:23:36.728Z,56.80
2022-10-14T22:26:05.719Z,57.88
2022-10-14T22:28:34.121Z,57.40
2022-10-14T22:31:06.346Z,57.29
2022-10-14T22:33:35.199Z,56.61
2022-10-14T22:36:07.123Z,56.43
2022-10-14T22:38:35.448Z,57.49
2022-10-14T22:41:03.563Z,56.80
2022-10-14T22:43:32.019Z,57.50
2022-10-14T22:46:00.714Z,57.70
2022-10-14T22:48:31.053Z,57.08
2022-10-14T22:51:03.205Z,57.40
2022-10-14T22:53:31.510Z,57.63
2022-10-14T22:56:00.065Z,57.30
2022-10-14T22:58:28.365Z,57.36
2022-10-14T23:00:57.001Z,56.82
2022-10-14T23:03:25.668Z,56.29
2022-10-14T23:05:55.137Z,56.08
2022-10-14T23:08:23.306Z,56.65
2022-10-14T23:10:51.857Z,56.15
2022-10-14T23:13:19.886Z,56.36
2022-10-14T23:15:55.751Z,56.95
2022-10-14T23:18:23.998Z,56.70
2022-10-14T23:20:52.576Z,57.08
2022-10-14T23:23:22.035Z,57.07
2022-10-14T23:25:50.113Z,56.83
2022-10-14T23:28:18.280Z,56.91
2022-10-14T23:30:46.343Z,56.91
2022-10-14T23:33:14.765Z,56.35
2022-10-14T23:35:42.797Z,55.94
2022-10-14T23:38:12.446Z,56.88
2022-10-14T23:40:41.905Z,56.22
2022-10-14T23:43:10.050Z,55.04
2022-10-14T23:45:38.112Z,55.18
2022-10-14T23:48:06.388Z,56.35
2022-10-14T23:50:34.439Z,56.20
2022-10-14T23:53:02.469Z,55.18
2022-10-14T23:55:30.626Z,55.50
2022-10-14T23:58:00.042Z,54.86
